• Join FlightAware (Why Join?)
  • Login
  • US Flag 
03:31PM EDT


 

Airport Tracker/Info


-or-


 

Live Flight TrackerFlight Track Log ✈ SWA896 ✈ 15-Apr-2013 ✈ KBUF - KLAS

Flight Track Log - Related Links

Times and Time Zones

All times are in EDT time to prevent confusion due to time zone crossing. See the SWA896 flight status page for this flight to view local times or setup timezone preferences in your user account.

Time Position Orientation Groundspeed Altitude Reporting Facility
EDT Latitude Longitude Course Direction KTS MPH feet Rate Location/Type
08:14AM 42.9500 -78.7167 44° Northeast 175 201 1,400  Level Buffalo TRACON
08:15AM 43.0000 -78.6500 44° Northeast 247 284 3,100 2,280 Climbing Buffalo TRACON
08:17AM 43.0500 -78.6833 334° Northwest 236 272 6,300 2,700 Climbing Buffalo TRACON
08:18AM 43.0500 -78.7833 270° West 261 300 8,900 2,160 Climbing Buffalo TRACON
08:19AM 43.0500 -78.8667 270° West 280 322 10,700 1,680 Climbing Buffalo TRACON
08:19AM 43.0500 -78.9833 270° West 357 411 12,000 1,860 Climbing Buffalo TRACON
08:20AM 43.0500 -79.1333 270° West 377 434 14,300 2,340 Climbing Buffalo TRACON
08:21AM 43.0500 -79.2667 270° West 385 443 16,700 2,340 Climbing Buffalo TRACON
08:22AM 43.0500 -79.4167 270° West 391 450 19,000 1,980 Climbing Buffalo TRACON
08:24AM 43.0500 -79.5833 270° West 401 461 20,900 1,740 Climbing Buffalo TRACON
08:25AM 43.0500 -79.7667 270° West 418 481 22,900 1,740 Climbing Buffalo TRACON
08:26AM 43.0833 -79.9167 287° West 434 499 24,600 1,500 Climbing Buffalo TRACON
08:26AM 43.1167 -80.0167 295° West 430 495 25,700 1,200 Climbing Toronto Center
08:27AM 43.1500 -80.1833 285° West 430 495 26,800 600 Climbing Toronto Center
08:28AM 43.1833 -80.3500 285° West 430 495 27,000 300 Climbing Toronto Center
08:29AM 43.2167 -80.5000 287° West 430 495 27,400 1,200 Climbing Toronto Center
08:30AM 43.2500 -80.6667 285° West 430 495 29,500 1,740 Climbing Toronto Center
08:31AM 43.2833 -80.8000 289° West 420 483 30,900 1,320 Climbing Toronto Center
08:32AM 43.3000 -80.9667 278° West 410 472 32,200 1,140 Climbing Toronto Center
08:33AM 43.3333 -81.1167 287° West 410 472 33,200 900 Climbing Toronto Center
08:34AM 43.3667 -81.2667 287° West 410 472 34,000 360 Climbing Toronto Center
08:35AM 43.4000 -81.4167 287° West 400 460 34,000  Level Toronto Center
08:36AM 43.4333 -81.5667 287° West 400 460 34,000  Level Toronto Center
08:37AM 43.4500 -81.7000 280° West 400 460 34,000  Level Toronto Center
08:38AM 43.4833 -81.8667 285° West 400 460 34,000  Level Toronto Center
08:39AM 43.5000 -82.0000 280° West 390 449 34,000  Level Toronto Center
08:40AM 43.5333 -82.1333 289° West 380 437 34,000  Level Toronto Center
08:41AM 43.5667 -82.2833 287° West 380 437 34,000 780 Level Toronto Center
08:42AM 43.6000 -82.4167 289° West 370 426 35,600 960 Climbing Toronto Center
08:43AM 43.6167 -82.5500 280° West 350 403 36,000 180 Climbing Toronto Center
08:44AM 43.6333 -82.6667 281° West 350 403 36,000  Level Toronto Center
08:45AM 43.6667 -82.8167 287° West 350 403 36,000  Level Toronto Center
08:46AM 43.6833 -82.9333 281° West 350 403 36,000  Level Toronto Center
08:47AM 43.7167 -83.0667 289° West 350 403 36,000  Level Toronto Center
08:49AM 43.7539 -83.2214 288° West 352 405 36,000  Level Minneapolis Center
08:50AM 43.7786 -83.3497 285° West 349 402 36,000  Level Minneapolis Center
08:51AM 43.8067 -83.5053 284° West 348 400 36,000  Level Minneapolis Center
08:52AM 43.8289 -83.6331 284° West 345 397 36,000  Level Minneapolis Center
08:53AM 43.8522 -83.7614 284° West 345 397 36,000  Level Minneapolis Center
08:54AM 43.8758 -83.8894 284° West 345 397 36,000  Level Minneapolis Center
08:55AM 43.8986 -84.0181 284° West 344 396 36,000  Level Minneapolis Center
08:56AM 43.9214 -84.1489 284° West 348 400 36,000  Level Minneapolis Center
08:57AM 43.9447 -84.2803 284° West 350 403 36,000  Level Minneapolis Center
08:58AM 43.9675 -84.4125 284° West 353 406 36,000  Level Minneapolis Center
08:59AM 43.9928 -84.5556 284° West 354 407 36,000  Level Minneapolis Center
09:00AM 44.0161 -84.6894 284° West 357 411 36,000  Level Minneapolis Center
09:01AM 44.0433 -84.8511 283° West 358 412 36,000  Level Minneapolis Center
09:02AM 44.0661 -84.9881 283° West 362 417 36,000  Level Minneapolis Center
09:03AM 44.0847 -85.0978 283° West 363 418 36,000  Level Minneapolis Center
09:04AM 44.1119 -85.2611 283° West 362 417 36,000  Level Minneapolis Center
09:05AM 44.1347 -85.3992 283° West 365 420 36,000  Level Minneapolis Center
09:06AM 44.1581 -85.5383 283° West 368 423 36,000  Level Minneapolis Center
09:07AM 44.1797 -85.6733 283° West 362 417 36,000  Level Minneapolis Center
09:08AM 44.2025 -85.8111 283° West 362 417 36,000  Level Minneapolis Center
09:09AM 44.2233 -85.9469 282° West 359 413 36,000  Level Minneapolis Center
09:10AM 44.2442 -86.0811 282° West 355 409 36,000  Level Minneapolis Center
09:11AM 44.2653 -86.2167 282° West 355 409 36,000  Level Minneapolis Center
09:12AM 44.2914 -86.3792 283° West 356 410 36,000  Level Minneapolis Center
09:13AM 44.3114 -86.5139 282° West 353 406 36,000  Level Minneapolis Center
09:14AM 44.3322 -86.6469 282° West 350 403 36,000  Level Minneapolis Center
09:15AM 44.3517 -86.7789 282° West 347 399 36,000  Level Minneapolis Center
09:16AM 44.3711 -86.9128 282° West 350 403 36,000  Level Minneapolis Center
09:17AM 44.3917 -87.0472 282° West 352 405 36,000  Level Minneapolis Center
09:18AM 44.4117 -87.1850 282° West 358 412 36,000  Level Minneapolis Center
09:19AM 44.4347 -87.3394 282° West 355 409 36,000  Level Minneapolis Center
09:20AM 44.4542 -87.4747 281° West 354 407 36,000  Level Minneapolis Center
09:21AM 44.4711 -87.5911 282° West 357 411 36,000  Level Minneapolis Center
09:22AM 44.4942 -87.7533 281° West 355 409 36,000  Level Minneapolis Center
09:23AM 44.5131 -87.8897 281° West 357 411 36,000  Level Minneapolis Center
09:24AM 44.5308 -88.0158 281° West 353 406 36,000  Level Minneapolis Center
09:26AM 44.5489 -88.1522 281° West 356 410 36,000  Level Minneapolis Center
09:27AM 44.5678 -88.2886 281° West 357 411 36,000  Level Minneapolis Center
09:28AM 44.5906 -88.4508 281° West 363 418 36,000  Level Minneapolis Center
09:29AM 44.6092 -88.5894 281° West 364 419 36,000  Level Minneapolis Center
09:30AM 44.6278 -88.7306 281° West 365 420 36,000  Level Minneapolis Center
09:31AM 44.6458 -88.8714 280° West 367 422 36,000  Level Minneapolis Center
09:32AM 44.6661 -89.0075 282° West 363 418 36,000  Level Minneapolis Center
09:33AM 44.6842 -89.1514 280° West 370 426 36,000  Level Minneapolis Center
09:34AM 44.7028 -89.2944 280° West 371 427 36,000  Level Minneapolis Center
09:35AM 44.7214 -89.4381 280° West 373 429 36,000  Level Minneapolis Center
09:36AM 44.7431 -89.6072 280° West 375 432 36,000  Level Minneapolis Center
09:37AM 44.7608 -89.7531 280° West 379 436 36,000  Level Minneapolis Center
09:38AM 44.7794 -89.9006 280° West 384 442 36,000  Level Minneapolis Center
09:39AM 44.7967 -90.0500 279° West 386 444 36,000  Level Minneapolis Center
09:40AM 44.8156 -90.1986 280° West 387 445 36,000  Level Minneapolis Center
09:41AM 44.8339 -90.3494 280° West 389 448 36,000  Level Minneapolis Center
09:42AM 44.8508 -90.4908 280° West 386 444 36,000  Level Minneapolis Center
09:43AM 44.8689 -90.6428 280° West 391 450 36,000  Level Minneapolis Center
09:44AM 44.8889 -90.8247 279° West 392 451 36,000  Level Minneapolis Center
09:45AM 44.9061 -90.9772 279° West 399 459 36,000  Level Minneapolis Center
09:46AM 44.9239 -91.1369 279° West 395 455 36,000  Level Minneapolis Center
09:47AM 44.9406 -91.2828 279° West 391 450 36,000  Level Minneapolis Center
09:48AM 44.9592 -91.4442 279° West 398 458 36,000  Level Minneapolis Center
09:49AM 44.9761 -91.6044 279° West 399 459 36,000  Level Minneapolis Center
09:50AM 44.9928 -91.7525 279° West 396 456 36,000  Level Minneapolis Center
09:51AM 45.0092 -91.9072 279° West 399 459 36,000  Level Minneapolis Center
09:52AM 45.0258 -92.0639 279° West 404 465 36,000  Level Minneapolis Center
09:53AM 45.0417 -92.2217 278° West 408 470 36,000  Level Minneapolis Center
09:54AM 45.0578 -92.3811 278° West 411 473 36,000  Level Minneapolis Center
09:55AM 45.0750 -92.5733 277° West 413 475 36,000  Level Minneapolis Center
09:56AM 45.0894 -92.7342 277° West 416 479 36,000  Level Minneapolis Center
09:57AM 45.1044 -92.8911 278° West 411 473 36,000  Level Minneapolis Center
09:58AM 45.1183 -93.0469 277° West 407 468 36,000  Level Minneapolis Center
09:59AM 45.1314 -93.2028 277° West 405 466 36,000  Level Minneapolis Center
10:00AM 45.1444 -93.3572 277° West 401 461 36,000  Level Minneapolis Center
10:01AM 45.1586 -93.5425 276° West 398 458 36,000  Level Minneapolis Center
10:02AM 45.1700 -93.6942 276° West 394 453 36,000  Level Minneapolis Center
10:03AM 45.1814 -93.8492 276° West 396 456 36,000  Level Minneapolis Center
10:04AM 45.1919 -94.0050 276° West 398 458 36,000  Level Minneapolis Center
10:05AM 45.2031 -94.1592 276° West 396 456 36,000  Level Minneapolis Center
10:06AM 45.2136 -94.3147 276° West 399 459 36,000  Level Minneapolis Center
10:07AM 45.2264 -94.5011 276° West 399 459 36,000  Level Minneapolis Center
10:08AM 45.2364 -94.6572 275° West 400 460 36,000  Level Minneapolis Center
10:10AM 45.2467 -94.8239 275° West 400 460 36,000  Level Minneapolis Center
10:11AM 45.2567 -94.9794 275° West 398 458 36,000  Level Minneapolis Center
10:12AM 45.2667 -95.1342 275° West 397 457 36,000  Level Minneapolis Center
10:13AM 45.2753 -95.2900 275° West 397 457 36,000  Level Minneapolis Center
10:14AM 45.2850 -95.4456 275° West 397 457 36,000  Level Minneapolis Center
10:15AM 45.2933 -95.6017 274° West 399 459 36,000  Level Minneapolis Center
10:16AM 45.3025 -95.7592 275° West 402 463 36,000  Level Minneapolis Center
10:17AM 45.3133 -95.9478 275° West 401 461 36,000  Level Minneapolis Center
10:18AM 45.3211 -96.1050 274° West 401 461 36,000  Level Minneapolis Center
10:19AM 45.3306 -96.2631 275° West 404 465 36,000  Level Minneapolis Center
10:20AM 45.3381 -96.4197 274° West 401 461 36,000  Level Minneapolis Center
10:21AM 45.3450 -96.5764 274° West 401 461 36,000  Level Minneapolis Center
10:22AM 45.3522 -96.7339 274° West 401 461 36,000  Level Minneapolis Center
10:23AM 45.3600 -96.8942 274° West 407 468 36,000  Level Minneapolis Center
10:24AM 45.3678 -97.0856 273° West 407 468 36,000  Level Minneapolis Center
10:25AM 45.3753 -97.2453 274° West 407 468 36,000  Level Minneapolis Center
10:26AM 45.3819 -97.4058 273° West 408 470 36,000  Level Minneapolis Center
10:27AM 45.3875 -97.5658 273° West 408 470 36,000  Level Minneapolis Center
10:28AM 45.3942 -97.7250 273° West 406 467 36,000  Level Minneapolis Center
10:29AM 45.4014 -97.8853 274° West 407 468 36,000  Level Minneapolis Center
10:30AM 45.4075 -98.0628 273° West 400 460 36,000  Level Minneapolis Center
10:31AM 45.4111 -98.2164 272° West 393 452 36,000  Level Minneapolis Center
10:32AM 45.4150 -98.3708 272° West 391 450 36,000  Level Minneapolis Center
10:33AM 45.3742 -98.5164 248° West 400 460 36,000  Level Minneapolis Center
10:34AM 45.3333 -98.6622 248° West 398 458 36,000  Level Minneapolis Center
10:35AM 45.2922 -98.8083 248° West 398 458 36,000  Level Minneapolis Center
10:36AM 45.2411 -98.9858 248° West 403 464 36,000  Level Minneapolis Center
10:38AM 45.1572 -99.2736 248° West 396 456 36,000  Level Minneapolis Center
10:39AM 45.1142 -99.4169 247° West 395 455 36,000  Level Minneapolis Center
10:40AM 45.0719 -99.5603 247° West 394 453 36,000  Level Minneapolis Center
10:41AM 45.0294 -99.7042 247° West 394 453 36,000  Level Minneapolis Center
10:42AM 44.9867 -99.8494 247° West 394 453 36,000  Level Minneapolis Center
10:43AM 44.9433 -99.9936 247° West 388 447 36,000  Level Minneapolis Center
10:44AM 44.8992 -100.1339 246° West 386 444 36,000  Level Minneapolis Center
10:45AM 44.8567 -100.2744 247° West 387 445 36,000  Level Minneapolis Center
10:46AM 44.8139 -100.4153 247° West 389 448 36,000  Level Minneapolis Center
10:48AM 44.7608 -100.5856 246° West 394 453 36,000  Level Minneapolis Center
10:49AM 44.7178 -100.7264 247° West 393 452 36,000  Level Minneapolis Center
10:50AM 44.6733 -100.8672 246° West 393 452 36,000  Level Minneapolis Center
10:51AM 44.6294 -101.0067 246° West 392 451 36,000  Level Minneapolis Center
10:52AM 44.5856 -101.1456 246° West 391 450 36,000  Level Minneapolis Center
10:53AM 44.5417 -101.2844 246° West 390 449 36,000  Level Minneapolis Center
10:54AM 44.4978 -101.4228 246° West 389 448 36,000  Level Minneapolis Center
10:55AM 44.4542 -101.5622 246° West 390 449 36,000  Level Minneapolis Center
10:55AM 44.4156 -101.6714 244° Southwest 392 451 36,000  Level Denver Center
10:56AM 44.4000 -101.7278 249° West 390 449 36,000  Level Minneapolis Center
10:57AM 44.3717 -101.8108 245° Southwest 391 450 36,000  Level Denver Center
10:58AM 44.3186 -101.9772 246° West 392 451 36,000  Level Denver Center
10:59AM 44.2719 -102.1136 244° Southwest 391 450 36,000  Level Denver Center
11:00AM 44.2286 -102.2519 246° West 389 448 36,000  Level Denver Center
11:01AM 44.1828 -102.3861 245° Southwest 386 444 36,000  Level Denver Center
11:02AM 44.1383 -102.5247 246° West 390 449 36,000  Level Denver Center
11:03AM 44.0919 -102.6611 245° Southwest 390 449 36,000  Level Denver Center
11:04AM 44.0461 -102.8008 246° West 395 455 36,000  Level Denver Center
11:05AM 43.9917 -102.9636 245° Southwest 399 459 36,000  Level Denver Center
11:06AM 43.9522 -103.0989 248° West 397 457 36,000  Level Denver Center
11:07AM 43.9122 -103.2581 251° West 392 451 36,000  Level Denver Center
11:08AM 43.8769 -103.3936 250° West 391 450 36,000  Level Denver Center
11:09AM 43.8372 -103.5522 251° West 391 450 36,000  Level Denver Center
11:10AM 43.8022 -103.6872 250° West 389 448 36,000  Level Denver Center
11:11AM 43.7619 -103.8433 250° West 387 445 36,000  Level Denver Center
11:12AM 43.7269 -103.9764 250° West 385 443 36,000  Level Denver Center
11:13AM 43.6867 -104.1311 250° West 384 442 36,000  Level Denver Center
11:14AM 43.6497 -104.2633 249° West 385 443 36,000  Level Denver Center
11:15AM 43.6092 -104.4175 250° West 385 443 36,000  Level Denver Center
11:16AM 43.5736 -104.5475 249° West 382 440 36,000  Level Denver Center
11:17AM 43.5325 -104.7022 250° West 384 442 36,000  Level Denver Center
11:18AM 43.4958 -104.8356 249° West 389 448 36,000  Level Denver Center
11:19AM 43.4533 -104.9911 249° West 390 449 36,000  Level Denver Center
11:20AM 43.4164 -105.1236 249° West 389 448 36,000  Level Denver Center
11:21AM 43.3733 -105.2794 249° West 392 451 36,000  Level Denver Center
11:22AM 43.3364 -105.4117 249° West 390 449 36,000  Level Denver Center
11:23AM 43.2939 -105.5653 249° West 386 444 36,000  Level Denver Center
11:24AM 43.2564 -105.6956 248° West 385 443 36,000  Level Denver Center
11:25AM 43.2133 -105.8489 249° West 387 445 36,000  Level Denver Center
11:27AM 43.1767 -105.9808 249° West 389 448 36,000  Level Denver Center
11:28AM 43.1381 -106.1114 248° West 388 447 36,000  Level Denver Center
11:29AM 43.0922 -106.2669 248° West 392 451 36,000  Level Denver Center
11:30AM 43.0342 -106.3847 236° Southwest 390 449 36,000  Level Denver Center
11:31AM 42.9636 -106.5208 235° Southwest 393 452 36,000  Level Denver Center
11:32AM 42.9028 -106.6347 234° Southwest 388 447 36,000  Level Denver Center
11:33AM 42.8314 -106.7678 234° Southwest 388 447 36,000  Level Denver Center
11:34AM 42.7719 -106.8808 234° Southwest 385 443 36,000  Level Denver Center
11:35AM 42.7014 -107.0117 234° Southwest 386 444 36,000  Level Denver Center
11:36AM 42.6417 -107.1239 234° Southwest 385 443 36,000  Level Denver Center
11:37AM 42.5783 -107.2400 233° Southwest 384 442 36,000  Level Denver Center
11:38AM 42.5083 -107.3700 234° Southwest 384 442 36,000  Level Denver Center
11:38AM 42.4681 -107.4436 233° Southwest 380 437 36,000  Level Salt Lake Center
11:39AM 42.4072 -107.5550 234° Southwest 384 442 36,000  Level Salt Lake Center
11:41AM 42.3475 -107.6653 234° Southwest 382 440 36,000  Level Salt Lake Center
11:42AM 42.2769 -107.7931 233° Southwest 381 438 36,000  Level Salt Lake Center
11:43AM 42.2164 -107.9039 234° Southwest 383 441 36,000  Level Salt Lake Center
11:44AM 42.1456 -108.0325 233° Southwest 383 441 36,000  Level Salt Lake Center
11:45AM 42.0844 -108.1428 233° Southwest 383 441 36,000  Level Salt Lake Center
11:46AM 42.0139 -108.2725 234° Southwest 384 442 36,000  Level Salt Lake Center
11:47AM 41.9517 -108.3825 233° Southwest 387 445 36,000  Level Salt Lake Center
11:48AM 41.8775 -108.5100 232° Southwest 389 448 36,000  Level Salt Lake Center
11:49AM 41.8147 -108.6219 233° Southwest 392 451 36,000  Level Salt Lake Center
11:50AM 41.7417 -108.7503 233° Southwest 389 448 36,000  Level Salt Lake Center
11:51AM 41.6800 -108.8589 233° Southwest 386 444 36,000  Level Salt Lake Center
11:52AM 41.6081 -108.9844 233° Southwest 383 441 36,000  Level Salt Lake Center
11:53AM 41.5392 -109.0833 227° Southwest 385 443 36,000  Level Salt Lake Center
11:54AM 41.4572 -109.1908 225° Southwest 383 441 36,000  Level Salt Lake Center
11:55AM 41.3731 -109.3025 225° Southwest 388 447 36,000  Level Salt Lake Center
11:56AM 41.3008 -109.3975 225° Southwest 386 444 36,000  Level Salt Lake Center
11:57AM 41.2275 -109.4922 224° Southwest 385 443 36,000  Level Salt Lake Center
11:58AM 41.1419 -109.6039 225° Southwest 386 444 36,000  Level Salt Lake Center
11:59AM 41.0697 -109.6989 225° Southwest 383 441 36,000  Level Salt Lake Center
12:00PM 40.9842 -109.8086 224° Southwest 384 442 36,000  Level Salt Lake Center
12:01PM 40.9114 -109.9028 224° Southwest 383 441 36,000  Level Salt Lake Center
12:02PM 40.8342 -110.0031 225° Southwest 382 440 36,000  Level Salt Lake Center
12:03PM 40.7481 -110.1122 224° Southwest 384 442 36,000  Level Salt Lake Center
12:04PM 40.6750 -110.2061 224° Southwest 383 441 36,000  Level Salt Lake Center
12:05PM 40.5939 -110.3089 224° Southwest 381 438 36,000  Level Salt Lake Center
12:06PM 40.5172 -110.4061 224° Southwest 378 435 36,000  Level Salt Lake Center
12:07PM 40.4317 -110.5125 223° Southwest 379 436 36,000  Level Salt Lake Center
12:08PM 40.3547 -110.6108 224° Southwest 375 432 36,000  Level Salt Lake Center
12:09PM 40.2767 -110.7094 224° Southwest 375 432 36,000  Level Salt Lake Center
12:10PM 40.2036 -110.8006 224° Southwest 379 436 36,000  Level Salt Lake Center
12:12PM 40.1172 -110.9086 224° Southwest 385 443 36,000  Level Salt Lake Center
12:13PM 40.0428 -111.0006 223° Southwest 387 445 36,000  Level Salt Lake Center
12:14PM 39.9544 -111.1100 224° Southwest 393 452 36,000  Level Salt Lake Center
12:15PM 39.8786 -111.2028 223° Southwest 393 452 36,000  Level Salt Lake Center
12:16PM 39.7919 -111.3089 223° Southwest 386 444 36,000  Level Salt Lake Center
12:17PM 39.7200 -111.4000 224° Southwest 381 438 36,000  Level Salt Lake Center
12:18PM 39.6425 -111.4928 223° Southwest 381 438 36,000  Level Salt Lake Center
12:19PM 39.5661 -111.5864 223° Southwest 380 437 36,000  Level Salt Lake Center
12:20PM 39.4892 -111.6806 223° Southwest 380 437 36,000  Level Salt Lake Center
12:21PM 39.4122 -111.7725 223° Southwest 379 436 36,000  Level Salt Lake Center
12:22PM 39.3197 -111.8842 223° Southwest 380 437 36,000  Level Salt Lake Center
12:23PM 39.2422 -111.9775 223° Southwest 382 440 36,000  Level Salt Lake Center
12:24PM 39.1675 -112.0650 222° Southwest 378 435 36,000  Level Salt Lake Center
12:25PM 39.0914 -112.1567 223° Southwest 376 433 36,000  Level Salt Lake Center
12:26PM 39.0156 -112.2464 223° Southwest 373 429 36,000 -480 Level Salt Lake Center
12:27PM 38.9261 -112.3539 223° Southwest 369 425 35,100 -960 Descending Salt Lake Center
12:28PM 38.8492 -112.4425 222° Southwest 373 429 34,100 -960 Descending Salt Lake Center
12:29PM 38.7722 -112.5331 223° Southwest 376 433 33,200 -900 Descending Salt Lake Center
12:30PM 38.6983 -112.6231 224° Southwest 370 426 32,300 -600 Descending Salt Lake Center
12:31PM 38.6244 -112.7064 221° Southwest 359 413 32,000 -180 Descending Salt Lake Center
12:32PM 38.5525 -112.7908 223° Southwest 354 407 32,000  Level Salt Lake Center
12:33PM 38.4814 -112.8731 222° Southwest 349 402 32,000  Level Salt Lake Center
12:34PM 38.3958 -112.9708 222° Southwest 347 399 32,000  Level Salt Lake Center
12:35PM 38.3136 -113.0428 214° Southwest 365 420 32,000  Level Salt Lake Center
12:36PM 38.2219 -113.0992 206° Southwest 369 425 32,000  Level Salt Lake Center
12:37PM 38.1297 -113.1561 206° Southwest 370 426 32,000  Level Salt Lake Center
12:38PM 38.0361 -113.2122 205° Southwest 373 429 32,000  Level Salt Lake Center
12:39PM 37.9436 -113.2697 206° Southwest 373 429 32,000  Level Salt Lake Center
12:40PM 37.8314 -113.3381 206° Southwest 375 432 32,000  Level Salt Lake Center
12:41PM 37.7361 -113.3956 206° Southwest 382 440 32,000  Level Salt Lake Center
12:42PM 37.6406 -113.4525 205° Southwest 383 441 32,000 -300 Level Salt Lake Center
12:43PM 37.5447 -113.5094 205° Southwest 384 442 31,500 -780 Descending Salt Lake Center
12:44PM 37.4525 -113.5639 205° Southwest 374 430 30,400 -1,080 Descending Salt Lake Center
12:45PM 37.3672 -113.6161 206° Southwest 354 407 29,300 -1,140 Descending Salt Lake Center
12:47PM 37.2667 -113.6769 206° Southwest 339 390 28,100 -1,080 Descending Salt Lake Center
12:48PM 37.1833 -113.7258 205° Southwest 334 384 27,100 -960 Descending Salt Lake Center
12:49PM 37.0983 -113.7769 206° Southwest 336 387 26,200 -960 Descending Salt Lake Center
12:50PM 37.0083 -113.8303 205° Southwest 351 404 25,200 -1,020 Descending Salt Lake Center
12:51PM 36.9175 -113.8836 205° Southwest 359 413 24,200 -540 Descending Salt Lake Center
12:52PM 36.7978 -113.9522 205° Southwest 359 413 24,000 -840 Descending Los Angeles Center
12:53PM 36.7022 -114.0086 205° Southwest 353 406 22,300 -1,800 Descending Los Angeles Center
12:54PM 36.6156 -114.0589 205° Southwest 345 397 20,300 -1,980 Descending Los Angeles Center
12:55PM 36.5542 -114.1314 224° Southwest 313 360 18,300 -2,040 Descending Los Angeles Center
12:56PM 36.5133 -114.2206 240° Southwest 297 342 16,200 -1,800 Descending Los Angeles Center
12:57PM 36.4675 -114.3208 240° Southwest 296 341 14,700 -1,560 Descending Los Angeles Center
12:58PM 36.4328 -114.4025 242° Southwest 285 328 13,200 -1,320 Descending Los Angeles Center
12:59PM 36.3844 -114.4831 233° Southwest 278 320 12,000 -1,260 Descending Los Angeles Center
01:00PM 36.3447 -114.5022 201° Southwest 280 322 11,200 -1,500 Descending Los Angeles Center
01:00PM 36.3081 -114.5081 187° South 285 328 10,500 -1,500 Descending Los Angeles Center
01:01PM 36.2686 -114.5200 194° South 280 322 9,700 -1,500 Descending Los Angeles Center
01:01PM 36.2322 -114.5250 186° South 279 321 9,000 -1,500 Descending Los Angeles Center
01:02PM 36.1925 -114.5378 195° South 279 321 8,200 -1,020 Descending Los Angeles Center
01:02PM 36.1572 -114.5450 189° South 276 318 8,000 -240 Descending Los Angeles Center
01:03PM 36.1356 -114.5731 226° Southwest 254 292 8,000  Level Los Angeles Center
01:03PM 36.1167 -114.6242 245° Southwest 238 274 8,000  Level Los Angeles Center
01:04PM 36.1042 -114.6556 244° Southwest 230 265 8,000  Level Los Angeles Center
01:04PM 36.0875 -114.6944 242° Southwest 232 267 8,000  Level Los Angeles Center
01:05PM 36.0744 -114.7269 244° Southwest 231 266 8,000 -720 Level Los Angeles Center
01:05PM 36.0728 -114.7706 267° West 233 268 7,300 -1,020 Descending Los Angeles Center
01:06PM 36.0739 -114.8122 272° West 238 274 6,900 -780 Descending Los Angeles Center
01:06PM 36.0747 -114.8489 272° West 233 268 6,500 -1,200 Descending Los Angeles Center
01:07PM 36.0728 -114.8953 267° West 227 261 5,700 -1,260 Descending Los Angeles Center
01:07PM 36.0750 -114.9281 275° West 230 265 5,200 -1,200 Descending Los Angeles Center
01:08PM 36.0744 -114.9719 269° West 219 252 4,500 -1,080 Descending Los Angeles Center
01:08PM 36.0744 -115.0017 270° West 225 259 4,100 -900 Descending Los Angeles Center
01:09PM 36.0739 -115.0386 269° West 177 204 3,500 -1,080 Descending Los Angeles Center
01:09PM 36.0742 -115.0664 271° West 182 209 3,000 -900 Descending Los Angeles Center
01:10PM 36.0725 -115.0817 262° West 154 177 2,800 -780 Descending Los Angeles Center
01:10PM 36.0742 -115.1183 273° West 163 188 2,200 -840 Descending Los Angeles Center
01:12PM 36.0667 -115.1500 219° Southwest  Level FlightAware Approximate
01:19PM 36.0801 -115.1523 219° Southwest  Level Estimated